sensor_id;sensor_type;location;lat;lon;timestamp;P1;durP1;ratioP1;P2;durP2;ratioP2
8895;SDS011;4484;48.928;10.066;2022-07-05T00:02:21;1.07;;;0.50;;
8895;SDS011;4484;48.928;10.066;2022-07-05T00:04:50;1.10;;;0.50;;
8895;SDS011;4484;48.928;10.066;2022-07-05T00:07:17;1.83;;;0.70;;
8895;SDS011;4484;48.928;10.066;2022-07-05T00:09:45;1.43;;;0.80;;
8895;SDS011;4484;48.928;10.066;2022-07-05T00:12:14;1.93;;;0.80;;
8895;SDS011;4484;48.928;10.066;2022-07-05T00:14:44;0.87;;;0.70;;
8895;SDS011;4484;48.928;10.066;2022-07-05T00:17:12;1.00;;;0.53;;
8895;SDS011;4484;48.928;10.066;2022-07-05T00:19:40;0.70;;;0.70;;
8895;SDS011;4484;48.928;10.066;2022-07-05T00:22:08;0.60;;;0.60;;
8895;SDS011;4484;48.928;10.066;2022-07-05T00:24:35;1.00;;;0.70;;
8895;SDS011;4484;48.928;10.066;2022-07-05T00:27:02;0.70;;;0.60;;
8895;SDS011;4484;48.928;10.066;2022-07-05T00:29:30;0.60;;;0.60;;
8895;SDS011;4484;48.928;10.066;2022-07-05T00:31:57;0.70;;;0.70;;
8895;SDS011;4484;48.928;10.066;2022-07-05T00:34:24;0.50;;;0.50;;
8895;SDS011;4484;48.928;10.066;2022-07-05T00:36:50;1.00;;;0.80;;
8895;SDS011;4484;48.928;10.066;2022-07-05T00:39:17;0.63;;;0.60;;
8895;SDS011;4484;48.928;10.066;2022-07-05T00:41:44;0.80;;;0.70;;
8895;SDS011;4484;48.928;10.066;2022-07-05T00:44:11;0.60;;;0.60;;
8895;SDS011;4484;48.928;10.066;2022-07-05T00:46:41;0.50;;;0.50;;
8895;SDS011;4484;48.928;10.066;2022-07-05T00:49:10;0.40;;;0.40;;
8895;SDS011;4484;48.928;10.066;2022-07-05T00:51:37;0.50;;;0.50;;
8895;SDS011;4484;48.928;10.066;2022-07-05T00:54:28;1.13;;;0.63;;
8895;SDS011;4484;48.928;10.066;2022-07-05T00:56:58;0.67;;;0.60;;
8895;SDS011;4484;48.928;10.066;2022-07-05T00:59:27;0.83;;;0.63;;
8895;SDS011;4484;48.928;10.066;2022-07-05T01:01:55;1.13;;;0.63;;
8895;SDS011;4484;48.928;10.066;2022-07-05T01:04:22;0.60;;;0.50;;
8895;SDS011;4484;48.928;10.066;2022-07-05T01:06:50;0.93;;;0.60;;
8895;SDS011;4484;48.928;10.066;2022-07-05T01:09:18;1.17;;;0.90;;
8895;SDS011;4484;48.928;10.066;2022-07-05T01:11:46;1.27;;;0.70;;
8895;SDS011;4484;48.928;10.066;2022-07-05T01:14:16;0.63;;;0.63;;
8895;SDS011;4484;48.928;10.066;2022-07-05T01:16:43;0.70;;;0.70;;
8895;SDS011;4484;48.928;10.066;2022-07-05T01:19:11;1.03;;;0.67;;
8895;SDS011;4484;48.928;10.066;2022-07-05T01:21:40;0.63;;;0.63;;
8895;SDS011;4484;48.928;10.066;2022-07-05T01:24:09;0.97;;;0.67;;
8895;SDS011;4484;48.928;10.066;2022-07-05T01:26:38;1.30;;;0.87;;
8895;SDS011;4484;48.928;10.066;2022-07-05T01:29:06;1.17;;;0.70;;
8895;SDS011;4484;48.928;10.066;2022-07-05T01:31:37;0.93;;;0.93;;
8895;SDS011;4484;48.928;10.066;2022-07-05T01:34:05;1.27;;;0.70;;
8895;SDS011;4484;48.928;10.066;2022-07-05T01:36:33;0.57;;;0.57;;
8895;SDS011;4484;48.928;10.066;2022-07-05T01:39:02;0.60;;;0.60;;
8895;SDS011;4484;48.928;10.066;2022-07-05T01:41:30;0.60;;;0.60;;
8895;SDS011;4484;48.928;10.066;2022-07-05T01:43:58;0.50;;;0.50;;
8895;SDS011;4484;48.928;10.066;2022-07-05T01:46:31;0.77;;;0.77;;
8895;SDS011;4484;48.928;10.066;2022-07-05T01:49:00;0.50;;;0.50;;
8895;SDS011;4484;48.928;10.066;2022-07-05T01:51:35;1.50;;;0.80;;
8895;SDS011;4484;48.928;10.066;2022-07-05T01:54:15;0.83;;;0.70;;
8895;SDS011;4484;48.928;10.066;2022-07-05T01:56:42;1.00;;;0.80;;
8895;SDS011;4484;48.928;10.066;2022-07-05T01:59:09;0.70;;;0.70;;
8895;SDS011;4484;48.928;10.066;2022-07-05T02:01:38;0.60;;;0.60;;
8895;SDS011;4484;48.928;10.066;2022-07-05T02:04:06;0.70;;;0.70;;
8895;SDS011;4484;48.928;10.066;2022-07-05T02:06:35;0.73;;;0.67;;
8895;SDS011;4484;48.928;10.066;2022-07-05T02:09:05;1.17;;;1.00;;
8895;SDS011;4484;48.928;10.066;2022-07-05T02:11:34;1.17;;;0.80;;
8895;SDS011;4484;48.928;10.066;2022-07-05T02:14:03;1.00;;;1.00;;
8895;SDS011;4484;48.928;10.066;2022-07-05T02:16:36;0.97;;;0.80;;
8895;SDS011;4484;48.928;10.066;2022-07-05T02:19:04;0.60;;;0.60;;
8895;SDS011;4484;48.928;10.066;2022-07-05T02:21:35;1.50;;;1.10;;
8895;SDS011;4484;48.928;10.066;2022-07-05T02:24:05;0.97;;;0.90;;
8895;SDS011;4484;48.928;10.066;2022-07-05T02:26:38;0.93;;;0.90;;
8895;SDS011;4484;48.928;10.066;2022-07-05T02:29:06;1.00;;;0.90;;
8895;SDS011;4484;48.928;10.066;2022-07-05T02:31:34;1.17;;;1.07;;
8895;SDS011;4484;48.928;10.066;2022-07-05T02:34:02;1.10;;;1.00;;
8895;SDS011;4484;48.928;10.066;2022-07-05T02:36:29;1.27;;;1.00;;
8895;SDS011;4484;48.928;10.066;2022-07-05T02:38:56;0.87;;;0.87;;
8895;SDS011;4484;48.928;10.066;2022-07-05T02:41:23;1.13;;;0.83;;
8895;SDS011;4484;48.928;10.066;2022-07-05T02:43:51;2.53;;;0.90;;
8895;SDS011;4484;48.928;10.066;2022-07-05T02:46:24;0.90;;;0.80;;
8895;SDS011;4484;48.928;10.066;2022-07-05T02:48:53;0.97;;;0.87;;
8895;SDS011;4484;48.928;10.066;2022-07-05T02:51:28;0.90;;;0.90;;
8895;SDS011;4484;48.928;10.066;2022-07-05T02:53:55;1.70;;;0.97;;
8895;SDS011;4484;48.928;10.066;2022-07-05T02:56:22;1.10;;;0.90;;
8895;SDS011;4484;48.928;10.066;2022-07-05T02:58:49;1.20;;;0.83;;
8895;SDS011;4484;48.928;10.066;2022-07-05T03:01:18;2.83;;;1.17;;
8895;SDS011;4484;48.928;10.066;2022-07-05T03:03:46;1.40;;;1.00;;
8895;SDS011;4484;48.928;10.066;2022-07-05T03:06:14;1.03;;;0.83;;
8895;SDS011;4484;48.928;10.066;2022-07-05T03:08:41;1.20;;;0.93;;
8895;SDS011;4484;48.928;10.066;2022-07-05T03:11:09;1.47;;;1.10;;
8895;SDS011;4484;48.928;10.066;2022-07-05T03:13:37;1.20;;;1.10;;
8895;SDS011;4484;48.928;10.066;2022-07-05T03:16:04;1.27;;;1.00;;
8895;SDS011;4484;48.928;10.066;2022-07-05T03:18:31;0.90;;;0.90;;
8895;SDS011;4484;48.928;10.066;2022-07-05T03:20:58;0.93;;;0.83;;
8895;SDS011;4484;48.928;10.066;2022-07-05T03:23:29;1.83;;;1.13;;
8895;SDS011;4484;48.928;10.066;2022-07-05T03:25:56;1.57;;;1.20;;
8895;SDS011;4484;48.928;10.066;2022-07-05T03:28:24;1.40;;;1.30;;
8895;SDS011;4484;48.928;10.066;2022-07-05T03:30:54;1.30;;;1.20;;
8895;SDS011;4484;48.928;10.066;2022-07-05T03:33:22;1.27;;;1.00;;
8895;SDS011;4484;48.928;10.066;2022-07-05T03:35:55;1.60;;;1.10;;
8895;SDS011;4484;48.928;10.066;2022-07-05T03:38:24;1.30;;;1.10;;
8895;SDS011;4484;48.928;10.066;2022-07-05T03:40:51;1.17;;;1.07;;
8895;SDS011;4484;48.928;10.066;2022-07-05T03:43:18;1.23;;;1.10;;
8895;SDS011;4484;48.928;10.066;2022-07-05T03:45:45;1.37;;;1.17;;
8895;SDS011;4484;48.928;10.066;2022-07-05T03:48:12;1.30;;;1.20;;
8895;SDS011;4484;48.928;10.066;2022-07-05T03:50:59;1.20;;;1.10;;
8895;SDS011;4484;48.928;10.066;2022-07-05T03:53:26;1.20;;;1.00;;
8895;SDS011;4484;48.928;10.066;2022-07-05T03:55:53;1.37;;;1.27;;
8895;SDS011;4484;48.928;10.066;2022-07-05T03:58:21;1.70;;;1.10;;
8895;SDS011;4484;48.928;10.066;2022-07-05T04:00:50;1.30;;;1.20;;
8895;SDS011;4484;48.928;10.066;2022-07-05T04:03:20;1.13;;;1.03;;
8895;SDS011;4484;48.928;10.066;2022-07-05T04:05:49;1.43;;;1.03;;
8895;SDS011;4484;48.928;10.066;2022-07-05T04:08:17;1.10;;;1.00;;
8895;SDS011;4484;48.928;10.066;2022-07-05T04:10:45;1.60;;;1.20;;
8895;SDS011;4484;48.928;10.066;2022-07-05T04:13:16;1.00;;;1.00;;
8895;SDS011;4484;48.928;10.066;2022-07-05T04:15:43;1.23;;;1.13;;
8895;SDS011;4484;48.928;10.066;2022-07-05T04:18:10;1.30;;;1.20;;
8895;SDS011;4484;48.928;10.066;2022-07-05T04:20:42;2.00;;;1.17;;
8895;SDS011;4484;48.928;10.066;2022-07-05T04:23:11;1.37;;;1.27;;
8895;SDS011;4484;48.928;10.066;2022-07-05T04:25:37;1.80;;;1.57;;
8895;SDS011;4484;48.928;10.066;2022-07-05T04:28:12;1.20;;;1.00;;
8895;SDS011;4484;48.928;10.066;2022-07-05T04:30:40;1.57;;;1.47;;
8895;SDS011;4484;48.928;10.066;2022-07-05T04:33:10;2.00;;;1.40;;
8895;SDS011;4484;48.928;10.066;2022-07-05T04:35:37;1.90;;;1.40;;
8895;SDS011;4484;48.928;10.066;2022-07-05T04:38:04;1.50;;;1.40;;
8895;SDS011;4484;48.928;10.066;2022-07-05T04:40:34;2.07;;;1.17;;
8895;SDS011;4484;48.928;10.066;2022-07-05T04:43:02;1.50;;;1.40;;
8895;SDS011;4484;48.928;10.066;2022-07-05T04:45:29;2.57;;;1.40;;
8895;SDS011;4484;48.928;10.066;2022-07-05T04:47:56;1.20;;;1.10;;
8895;SDS011;4484;48.928;10.066;2022-07-05T04:50:24;1.40;;;1.20;;
8895;SDS011;4484;48.928;10.066;2022-07-05T04:52:52;1.47;;;1.37;;
8895;SDS011;4484;48.928;10.066;2022-07-05T04:55:19;1.50;;;1.10;;
8895;SDS011;4484;48.928;10.066;2022-07-05T04:57:46;1.17;;;1.10;;
8895;SDS011;4484;48.928;10.066;2022-07-05T05:00:13;1.33;;;1.23;;
8895;SDS011;4484;48.928;10.066;2022-07-05T05:02:41;2.17;;;1.13;;
8895;SDS011;4484;48.928;10.066;2022-07-05T05:05:07;2.63;;;1.40;;
8895;SDS011;4484;48.928;10.066;2022-07-05T05:07:35;2.10;;;1.17;;
8895;SDS011;4484;48.928;10.066;2022-07-05T05:10:05;1.17;;;1.07;;
8895;SDS011;4484;48.928;10.066;2022-07-05T05:12:32;1.20;;;1.10;;
8895;SDS011;4484;48.928;10.066;2022-07-05T05:14:59;0.90;;;0.80;;
8895;SDS011;4484;48.928;10.066;2022-07-05T05:17:33;1.03;;;0.90;;
8895;SDS011;4484;48.928;10.066;2022-07-05T05:20:03;1.93;;;1.20;;
8895;SDS011;4484;48.928;10.066;2022-07-05T05:22:31;1.13;;;1.03;;
8895;SDS011;4484;48.928;10.066;2022-07-05T05:24:58;4.60;;;2.07;;
8895;SDS011;4484;48.928;10.066;2022-07-05T05:27:25;2.03;;;1.70;;
8895;SDS011;4484;48.928;10.066;2022-07-05T05:29:51;4.87;;;1.60;;
8895;SDS011;4484;48.928;10.066;2022-07-05T05:32:18;4.30;;;1.40;;
8895;SDS011;4484;48.928;10.066;2022-07-05T05:34:45;1.33;;;1.23;;
8895;SDS011;4484;48.928;10.066;2022-07-05T05:37:12;2.27;;;1.40;;
8895;SDS011;4484;48.928;10.066;2022-07-05T05:39:39;2.60;;;1.20;;
8895;SDS011;4484;48.928;10.066;2022-07-05T05:42:06;2.13;;;1.10;;
8895;SDS011;4484;48.928;10.066;2022-07-05T05:44:33;2.33;;;1.30;;
8895;SDS011;4484;48.928;10.066;2022-07-05T05:47:00;1.17;;;1.00;;
8895;SDS011;4484;48.928;10.066;2022-07-05T05:49:27;0.90;;;0.90;;
8895;SDS011;4484;48.928;10.066;2022-07-05T05:51:54;1.23;;;1.10;;
8895;SDS011;4484;48.928;10.066;2022-07-05T05:54:21;2.93;;;1.00;;
8895;SDS011;4484;48.928;10.066;2022-07-05T05:56:48;1.13;;;1.10;;
8895;SDS011;4484;48.928;10.066;2022-07-05T05:59:16;2.37;;;1.07;;
8895;SDS011;4484;48.928;10.066;2022-07-05T06:01:42;1.00;;;0.90;;
8895;SDS011;4484;48.928;10.066;2022-07-05T06:04:09;1.00;;;0.90;;
8895;SDS011;4484;48.928;10.066;2022-07-05T06:06:40;1.70;;;1.03;;
8895;SDS011;4484;48.928;10.066;2022-07-05T06:09:06;4.23;;;1.37;;
8895;SDS011;4484;48.928;10.066;2022-07-05T06:11:33;4.20;;;1.30;;
8895;SDS011;4484;48.928;10.066;2022-07-05T06:14:00;1.20;;;1.10;;
8895;SDS011;4484;48.928;10.066;2022-07-05T06:16:27;0.90;;;0.90;;
8895;SDS011;4484;48.928;10.066;2022-07-05T06:18:54;1.17;;;1.07;;
8895;SDS011;4484;48.928;10.066;2022-07-05T06:21:21;1.03;;;0.90;;
8895;SDS011;4484;48.928;10.066;2022-07-05T06:23:48;2.50;;;0.80;;
8895;SDS011;4484;48.928;10.066;2022-07-05T06:26:15;2.10;;;0.90;;
8895;SDS011;4484;48.928;10.066;2022-07-05T06:28:42;1.40;;;1.00;;
8895;SDS011;4484;48.928;10.066;2022-07-05T06:31:09;1.73;;;1.10;;
8895;SDS011;4484;48.928;10.066;2022-07-05T06:33:35;1.10;;;0.80;;
8895;SDS011;4484;48.928;10.066;2022-07-05T06:36:02;0.97;;;0.90;;
8895;SDS011;4484;48.928;10.066;2022-07-05T06:38:30;1.63;;;1.30;;
8895;SDS011;4484;48.928;10.066;2022-07-05T06:40:57;1.13;;;1.03;;
8895;SDS011;4484;48.928;10.066;2022-07-05T06:43:23;1.00;;;0.90;;
8895;SDS011;4484;48.928;10.066;2022-07-05T06:46:02;1.00;;;0.80;;
8895;SDS011;4484;48.928;10.066;2022-07-05T06:48:29;2.40;;;0.90;;
8895;SDS011;4484;48.928;10.066;2022-07-05T06:50:56;1.97;;;0.80;;
8895;SDS011;4484;48.928;10.066;2022-07-05T06:53:23;1.63;;;0.80;;
8895;SDS011;4484;48.928;10.066;2022-07-05T06:55:50;1.50;;;0.93;;
8895;SDS011;4484;48.928;10.066;2022-07-05T06:58:22;1.53;;;0.90;;
8895;SDS011;4484;48.928;10.066;2022-07-05T07:00:49;1.17;;;1.00;;
8895;SDS011;4484;48.928;10.066;2022-07-05T07:03:36;0.80;;;0.80;;
8895;SDS011;4484;48.928;10.066;2022-07-05T07:06:22;1.23;;;0.87;;
8895;SDS011;4484;48.928;10.066;2022-07-05T07:08:50;2.22;;;0.80;;
8895;SDS011;4484;48.928;10.066;2022-07-05T07:11:35;0.73;;;0.73;;
8895;SDS011;4484;48.928;10.066;2022-07-05T07:14:01;1.33;;;0.88;;
8895;SDS011;4484;48.928;10.066;2022-07-05T07:16:28;1.20;;;0.88;;
8895;SDS011;4484;48.928;10.066;2022-07-05T07:18:55;1.88;;;0.90;;
8895;SDS011;4484;48.928;10.066;2022-07-05T07:21:40;1.75;;;0.75;;
8895;SDS011;4484;48.928;10.066;2022-07-05T07:24:08;0.98;;;0.80;;
8895;SDS011;4484;48.928;10.066;2022-07-05T07:26:35;0.93;;;0.80;;
8895;SDS011;4484;48.928;10.066;2022-07-05T07:29:21;2.33;;;0.60;;
8895;SDS011;4484;48.928;10.066;2022-07-05T07:31:48;0.80;;;0.70;;
8895;SDS011;4484;48.928;10.066;2022-07-05T07:34:15;1.90;;;0.80;;
8895;SDS011;4484;48.928;10.066;2022-07-05T07:36:42;1.85;;;0.75;;
8895;SDS011;4484;48.928;10.066;2022-07-05T07:39:09;1.25;;;0.70;;
8895;SDS011;4484;48.928;10.066;2022-07-05T07:41:36;1.95;;;0.60;;
8895;SDS011;4484;48.928;10.066;2022-07-05T07:44:03;1.88;;;0.90;;
8895;SDS011;4484;48.928;10.066;2022-07-05T07:46:32;1.00;;;0.90;;
8895;SDS011;4484;48.928;10.066;2022-07-05T07:49:00;1.83;;;0.77;;
8895;SDS011;4484;48.928;10.066;2022-07-05T07:51:27;0.70;;;0.65;;
8895;SDS011;4484;48.928;10.066;2022-07-05T07:53:55;4.82;;;1.17;;
8895;SDS011;4484;48.928;10.066;2022-07-05T07:56:43;2.08;;;0.90;;
8895;SDS011;4484;48.928;10.066;2022-07-05T07:59:10;1.45;;;0.90;;
8895;SDS011;4484;48.928;10.066;2022-07-05T08:01:37;1.95;;;0.80;;
8895;SDS011;4484;48.928;10.066;2022-07-05T08:04:10;0.60;;;0.60;;
8895;SDS011;4484;48.928;10.066;2022-07-05T08:06:39;1.42;;;0.80;;
8895;SDS011;4484;48.928;10.066;2022-07-05T08:09:06;0.70;;;0.70;;
8895;SDS011;4484;48.928;10.066;2022-07-05T08:11:41;0.57;;;0.57;;
8895;SDS011;4484;48.928;10.066;2022-07-05T08:14:09;3.72;;;1.10;;
8895;SDS011;4484;48.928;10.066;2022-07-05T08:16:36;1.80;;;0.90;;
8895;SDS011;4484;48.928;10.066;2022-07-05T08:19:03;4.32;;;1.00;;
8895;SDS011;4484;48.928;10.066;2022-07-05T08:21:48;1.50;;;0.80;;
8895;SDS011;4484;48.928;10.066;2022-07-05T08:24:15;1.00;;;0.70;;
8895;SDS011;4484;48.928;10.066;2022-07-05T08:26:43;2.10;;;0.82;;
8895;SDS011;4484;48.928;10.066;2022-07-05T08:29:11;2.47;;;0.68;;
8895;SDS011;4484;48.928;10.066;2022-07-05T08:31:39;0.98;;;0.70;;
8895;SDS011;4484;48.928;10.066;2022-07-05T08:34:08;4.47;;;0.80;;
8895;SDS011;4484;48.928;10.066;2022-07-05T08:36:35;1.48;;;0.70;;
8895;SDS011;4484;48.928;10.066;2022-07-05T08:39:03;1.52;;;0.80;;
8895;SDS011;4484;48.928;10.066;2022-07-05T08:41:31;1.33;;;0.80;;
8895;SDS011;4484;48.928;10.066;2022-07-05T08:44:01;4.47;;;0.75;;
8895;SDS011;4484;48.928;10.066;2022-07-05T08:46:30;2.25;;;0.93;;
8895;SDS011;4484;48.928;10.066;2022-07-05T08:49:02;2.50;;;0.90;;
8895;SDS011;4484;48.928;10.066;2022-07-05T08:51:38;1.35;;;0.90;;
8895;SDS011;4484;48.928;10.066;2022-07-05T08:54:08;1.23;;;0.73;;
8895;SDS011;4484;48.928;10.066;2022-07-05T08:56:42;2.15;;;0.80;;
8895;SDS011;4484;48.928;10.066;2022-07-05T08:59:32;1.38;;;0.77;;
8895;SDS011;4484;48.928;10.066;2022-07-05T09:01:59;0.90;;;0.75;;
8895;SDS011;4484;48.928;10.066;2022-07-05T09:04:30;4.32;;;0.70;;
8895;SDS011;4484;48.928;10.066;2022-07-05T09:07:02;1.05;;;0.80;;
8895;SDS011;4484;48.928;10.066;2022-07-05T09:09:31;1.70;;;0.70;;
8895;SDS011;4484;48.928;10.066;2022-07-05T09:11:59;1.45;;;0.90;;
8895;SDS011;4484;48.928;10.066;2022-07-05T09:14:46;2.33;;;0.77;;
8895;SDS011;4484;48.928;10.066;2022-07-05T09:17:14;1.13;;;0.70;;
8895;SDS011;4484;48.928;10.066;2022-07-05T09:19:41;2.42;;;0.95;;
8895;SDS011;4484;48.928;10.066;2022-07-05T09:22:08;1.00;;;0.70;;
8895;SDS011;4484;48.928;10.066;2022-07-05T09:24:44;1.90;;;0.73;;
8895;SDS011;4484;48.928;10.066;2022-07-05T09:27:13;1.23;;;0.80;;
8895;SDS011;4484;48.928;10.066;2022-07-05T09:29:52;1.02;;;0.90;;
8895;SDS011;4484;48.928;10.066;2022-07-05T09:32:28;1.45;;;0.65;;
8895;SDS011;4484;48.928;10.066;2022-07-05T09:34:56;1.13;;;0.80;;
8895;SDS011;4484;48.928;10.066;2022-07-05T09:37:42;1.00;;;0.77;;
8895;SDS011;4484;48.928;10.066;2022-07-05T09:40:12;1.30;;;0.82;;
8895;SDS011;4484;48.928;10.066;2022-07-05T09:42:46;1.02;;;0.65;;
8895;SDS011;4484;48.928;10.066;2022-07-05T09:45:24;2.85;;;0.75;;
8895;SDS011;4484;48.928;10.066;2022-07-05T09:47:53;1.73;;;0.70;;
8895;SDS011;4484;48.928;10.066;2022-07-05T09:50:41;0.70;;;0.70;;
8895;SDS011;4484;48.928;10.066;2022-07-05T09:56:26;2.03;;;0.90;;
8895;SDS011;4484;48.928;10.066;2022-07-05T09:59:05;1.15;;;0.60;;
8895;SDS011;4484;48.928;10.066;2022-07-05T10:01:39;2.67;;;0.70;;
8895;SDS011;4484;48.928;10.066;2022-07-05T10:04:07;5.18;;;0.95;;
8895;SDS011;4484;48.928;10.066;2022-07-05T10:06:35;1.05;;;0.70;;
8895;SDS011;4484;48.928;10.066;2022-07-05T10:09:02;2.92;;;0.82;;
8895;SDS011;4484;48.928;10.066;2022-07-05T10:11:30;1.40;;;0.80;;
8895;SDS011;4484;48.928;10.066;2022-07-05T10:13:58;2.58;;;0.90;;
8895;SDS011;4484;48.928;10.066;2022-07-05T10:16:25;1.17;;;0.77;;
8895;SDS011;4484;48.928;10.066;2022-07-05T10:18:55;1.45;;;0.80;;
8895;SDS011;4484;48.928;10.066;2022-07-05T10:21:23;1.17;;;0.95;;
8895;SDS011;4484;48.928;10.066;2022-07-05T10:23:52;3.17;;;0.80;;
8895;SDS011;4484;48.928;10.066;2022-07-05T10:26:23;1.15;;;0.80;;
8895;SDS011;4484;48.928;10.066;2022-07-05T10:28:51;3.58;;;0.90;;
8895;SDS011;4484;48.928;10.066;2022-07-05T10:31:26;1.33;;;0.82;;
8895;SDS011;4484;48.928;10.066;2022-07-05T10:33:55;0.60;;;0.60;;
8895;SDS011;4484;48.928;10.066;2022-07-05T10:36:24;1.05;;;0.73;;
8895;SDS011;4484;48.928;10.066;2022-07-05T10:38:52;2.15;;;0.80;;
8895;SDS011;4484;48.928;10.066;2022-07-05T10:41:22;1.13;;;1.00;;
8895;SDS011;4484;48.928;10.066;2022-07-05T10:43:56;1.25;;;0.70;;
8895;SDS011;4484;48.928;10.066;2022-07-05T10:46:37;1.67;;;0.90;;
8895;SDS011;4484;48.928;10.066;2022-07-05T10:49:11;1.10;;;0.85;;
8895;SDS011;4484;48.928;10.066;2022-07-05T10:51:41;0.82;;;0.63;;
8895;SDS011;4484;48.928;10.066;2022-07-05T10:54:08;2.38;;;0.98;;
8895;SDS011;4484;48.928;10.066;2022-07-05T10:56:35;1.05;;;0.82;;
8895;SDS011;4484;48.928;10.066;2022-07-05T10:59:08;2.65;;;0.90;;
8895;SDS011;4484;48.928;10.066;2022-07-05T11:01:40;1.50;;;0.88;;
8895;SDS011;4484;48.928;10.066;2022-07-05T11:04:26;1.98;;;0.70;;
8895;SDS011;4484;48.928;10.066;2022-07-05T11:06:57;1.48;;;0.80;;
8895;SDS011;4484;48.928;10.066;2022-07-05T11:09:24;2.38;;;0.80;;
8895;SDS011;4484;48.928;10.066;2022-07-05T11:14:38;0.80;;;0.70;;
8895;SDS011;4484;48.928;10.066;2022-07-05T11:19:58;1.00;;;0.80;;
8895;SDS011;4484;48.928;10.066;2022-07-05T11:22:26;0.80;;;0.80;;
8895;SDS011;4484;48.928;10.066;2022-07-05T11:24:54;2.10;;;0.95;;
8895;SDS011;4484;48.928;10.066;2022-07-05T11:27:23;1.52;;;0.75;;
8895;SDS011;4484;48.928;10.066;2022-07-05T11:29:50;0.70;;;0.70;;
8895;SDS011;4484;48.928;10.066;2022-07-05T11:32:23;1.08;;;0.98;;
8895;SDS011;4484;48.928;10.066;2022-07-05T11:35:11;1.15;;;0.80;;
8895;SDS011;4484;48.928;10.066;2022-07-05T11:38:25;3.83;;;0.85;;
8895;SDS011;4484;48.928;10.066;2022-07-05T11:40:50;1.17;;;0.90;;
8895;SDS011;4484;48.928;10.066;2022-07-05T11:43:29;2.15;;;1.00;;
8895;SDS011;4484;48.928;10.066;2022-07-05T11:45:59;1.80;;;1.08;;
8895;SDS011;4484;48.928;10.066;2022-07-05T11:48:27;1.67;;;0.88;;
8895;SDS011;4484;48.928;10.066;2022-07-05T11:50:54;4.15;;;0.80;;
8895;SDS011;4484;48.928;10.066;2022-07-05T11:53:29;2.22;;;0.88;;
8895;SDS011;4484;48.928;10.066;2022-07-05T11:56:17;2.83;;;0.93;;
8895;SDS011;4484;48.928;10.066;2022-07-05T11:58:44;0.68;;;0.68;;
8895;SDS011;4484;48.928;10.066;2022-07-05T12:01:11;3.63;;;1.20;;
8895;SDS011;4484;48.928;10.066;2022-07-05T12:03:38;1.25;;;0.90;;
8895;SDS011;4484;48.928;10.066;2022-07-05T12:06:11;0.98;;;0.93;;
8895;SDS011;4484;48.928;10.066;2022-07-05T12:08:44;1.60;;;0.90;;
8895;SDS011;4484;48.928;10.066;2022-07-05T12:11:12;1.10;;;0.80;;
8895;SDS011;4484;48.928;10.066;2022-07-05T12:13:57;1.85;;;0.93;;
8895;SDS011;4484;48.928;10.066;2022-07-05T12:16:24;1.67;;;0.70;;
8895;SDS011;4484;48.928;10.066;2022-07-05T12:21:22;0.70;;;0.70;;
8895;SDS011;4484;48.928;10.066;2022-07-05T12:23:49;1.00;;;0.75;;
8895;SDS011;4484;48.928;10.066;2022-07-05T12:26:18;4.18;;;0.88;;
8895;SDS011;4484;48.928;10.066;2022-07-05T12:28:46;1.50;;;0.82;;
8895;SDS011;4484;48.928;10.066;2022-07-05T12:31:23;4.05;;;0.95;;
8895;SDS011;4484;48.928;10.066;2022-07-05T12:33:52;0.77;;;0.68;;
8895;SDS011;4484;48.928;10.066;2022-07-05T12:36:20;1.00;;;0.90;;
8895;SDS011;4484;48.928;10.066;2022-07-05T12:38:58;1.17;;;0.88;;
8895;SDS011;4484;48.928;10.066;2022-07-05T12:41:25;2.03;;;0.80;;
8895;SDS011;4484;48.928;10.066;2022-07-05T12:43:52;1.38;;;0.60;;
8895;SDS011;4484;48.928;10.066;2022-07-05T12:46:34;1.70;;;0.90;;
8895;SDS011;4484;48.928;10.066;2022-07-05T12:49:09;1.55;;;0.80;;
8895;SDS011;4484;48.928;10.066;2022-07-05T12:51:38;6.00;;;0.80;;
8895;SDS011;4484;48.928;10.066;2022-07-05T12:54:06;0.90;;;0.77;;
8895;SDS011;4484;48.928;10.066;2022-07-05T12:56:53;2.20;;;0.75;;
8895;SDS011;4484;48.928;10.066;2022-07-05T13:00:02;1.08;;;0.95;;
8895;SDS011;4484;48.928;10.066;2022-07-05T13:05:09;2.80;;;0.98;;
8895;SDS011;4484;48.928;10.066;2022-07-05T13:07:48;1.35;;;0.70;;
8895;SDS011;4484;48.928;10.066;2022-07-05T13:10:23;2.53;;;0.80;;
8895;SDS011;4484;48.928;10.066;2022-07-05T13:12:54;1.02;;;0.80;;
8895;SDS011;4484;48.928;10.066;2022-07-05T13:15:21;2.25;;;0.75;;
8895;SDS011;4484;48.928;10.066;2022-07-05T13:17:48;1.05;;;0.70;;
8895;SDS011;4484;48.928;10.066;2022-07-05T13:20:16;1.35;;;0.70;;
8895;SDS011;4484;48.928;10.066;2022-07-05T13:22:45;1.13;;;0.75;;
8895;SDS011;4484;48.928;10.066;2022-07-05T13:25:13;0.88;;;0.77;;
8895;SDS011;4484;48.928;10.066;2022-07-05T13:27:40;1.60;;;0.80;;
8895;SDS011;4484;48.928;10.066;2022-07-05T13:30:08;1.08;;;0.82;;
8895;SDS011;4484;48.928;10.066;2022-07-05T13:32:35;0.98;;;0.70;;
8895;SDS011;4484;48.928;10.066;2022-07-05T13:35:02;1.55;;;0.90;;
8895;SDS011;4484;48.928;10.066;2022-07-05T13:37:31;0.70;;;0.70;;
8895;SDS011;4484;48.928;10.066;2022-07-05T13:39:58;0.85;;;0.85;;
8895;SDS011;4484;48.928;10.066;2022-07-05T13:42:26;0.80;;;0.80;;
8895;SDS011;4484;48.928;10.066;2022-07-05T13:44:52;0.73;;;0.60;;
8895;SDS011;4484;48.928;10.066;2022-07-05T13:47:19;1.48;;;0.90;;
8895;SDS011;4484;48.928;10.066;2022-07-05T13:49:46;0.77;;;0.60;;
8895;SDS011;4484;48.928;10.066;2022-07-05T13:52:13;0.85;;;0.70;;
8895;SDS011;4484;48.928;10.066;2022-07-05T13:54:40;1.58;;;0.50;;
8895;SDS011;4484;48.928;10.066;2022-07-05T13:57:09;2.15;;;0.90;;
8895;SDS011;4484;48.928;10.066;2022-07-05T13:59:36;0.88;;;0.82;;
8895;SDS011;4484;48.928;10.066;2022-07-05T14:02:03;1.58;;;0.85;;
8895;SDS011;4484;48.928;10.066;2022-07-05T14:04:30;1.00;;;0.77;;
8895;SDS011;4484;48.928;10.066;2022-07-05T14:07:00;2.53;;;0.82;;
8895;SDS011;4484;48.928;10.066;2022-07-05T14:09:27;1.00;;;0.70;;
8895;SDS011;4484;48.928;10.066;2022-07-05T14:11:55;0.70;;;0.60;;
8895;SDS011;4484;48.928;10.066;2022-07-05T14:14:22;2.67;;;0.60;;
8895;SDS011;4484;48.928;10.066;2022-07-05T14:16:49;1.30;;;0.77;;
8895;SDS011;4484;48.928;10.066;2022-07-05T14:19:16;1.05;;;0.63;;
8895;SDS011;4484;48.928;10.066;2022-07-05T14:21:43;1.08;;;0.80;;
8895;SDS011;4484;48.928;10.066;2022-07-05T14:24:13;2.08;;;0.80;;
8895;SDS011;4484;48.928;10.066;2022-07-05T14:26:41;5.43;;;0.70;;
8895;SDS011;4484;48.928;10.066;2022-07-05T14:29:08;0.95;;;0.77;;
8895;SDS011;4484;48.928;10.066;2022-07-05T14:31:36;2.45;;;0.80;;
8895;SDS011;4484;48.928;10.066;2022-07-05T14:34:03;1.08;;;0.65;;
8895;SDS011;4484;48.928;10.066;2022-07-05T14:36:31;1.75;;;0.90;;
8895;SDS011;4484;48.928;10.066;2022-07-05T14:38:58;4.00;;;0.90;;
8895;SDS011;4484;48.928;10.066;2022-07-05T14:41:27;1.45;;;0.85;;
8895;SDS011;4484;48.928;10.066;2022-07-05T14:43:55;2.92;;;0.80;;
8895;SDS011;4484;48.928;10.066;2022-07-05T14:46:22;0.60;;;0.60;;
8895;SDS011;4484;48.928;10.066;2022-07-05T14:48:49;0.95;;;0.70;;
8895;SDS011;4484;48.928;10.066;2022-07-05T14:51:16;0.50;;;0.50;;
8895;SDS011;4484;48.928;10.066;2022-07-05T14:53:44;1.00;;;0.70;;
8895;SDS011;4484;48.928;10.066;2022-07-05T14:56:14;2.20;;;0.88;;
8895;SDS011;4484;48.928;10.066;2022-07-05T14:58:41;1.98;;;1.00;;
8895;SDS011;4484;48.928;10.066;2022-07-05T15:01:09;1.45;;;0.77;;
8895;SDS011;4484;48.928;10.066;2022-07-05T15:03:36;0.60;;;0.60;;
8895;SDS011;4484;48.928;10.066;2022-07-05T15:06:07;1.83;;;0.88;;
8895;SDS011;4484;48.928;10.066;2022-07-05T15:08:35;0.93;;;0.60;;
8895;SDS011;4484;48.928;10.066;2022-07-05T15:11:03;1.40;;;0.70;;
8895;SDS011;4484;48.928;10.066;2022-07-05T15:13:31;1.40;;;0.63;;
8895;SDS011;4484;48.928;10.066;2022-07-05T15:15:59;2.50;;;0.70;;
8895;SDS011;4484;48.928;10.066;2022-07-05T15:18:26;0.60;;;0.60;;
8895;SDS011;4484;48.928;10.066;2022-07-05T15:20:54;2.45;;;0.80;;
8895;SDS011;4484;48.928;10.066;2022-07-05T15:23:26;0.90;;;0.60;;
8895;SDS011;4484;48.928;10.066;2022-07-05T15:25:56;0.93;;;0.73;;
8895;SDS011;4484;48.928;10.066;2022-07-05T15:28:26;0.75;;;0.65;;
8895;SDS011;4484;48.928;10.066;2022-07-05T15:30:53;1.08;;;0.77;;